sensor_id;sensor_type;location;lat;lon;timestamp;P1;durP1;ratioP1;P2;durP2;ratioP2
8040;SDS011;4063;48.140;10.250;2022-07-05T00:02:07;0.40;;;0.40;;
8040;SDS011;4063;48.140;10.250;2022-07-05T00:04:33;0.15;;;0.15;;
8040;SDS011;4063;48.140;10.250;2022-07-05T00:06:59;0.20;;;0.20;;
8040;SDS011;4063;48.140;10.250;2022-07-05T00:09:53;0.13;;;0.13;;
8040;SDS011;4063;48.140;10.250;2022-07-05T00:12:21;0.20;;;0.20;;
8040;SDS011;4063;48.140;10.250;2022-07-05T00:14:47;0.20;;;0.20;;
8040;SDS011;4063;48.140;10.250;2022-07-05T00:17:14;0.20;;;0.20;;
8040;SDS011;4063;48.140;10.250;2022-07-05T00:19:40;0.40;;;0.40;;
8040;SDS011;4063;48.140;10.250;2022-07-05T00:22:06;0.20;;;0.20;;
8040;SDS011;4063;48.140;10.250;2022-07-05T00:24:32;0.43;;;0.43;;
8040;SDS011;4063;48.140;10.250;2022-07-05T00:26:58;0.10;;;0.10;;
8040;SDS011;4063;48.140;10.250;2022-07-05T00:29:24;0.20;;;0.20;;
8040;SDS011;4063;48.140;10.250;2022-07-05T00:31:52;0.10;;;0.10;;
8040;SDS011;4063;48.140;10.250;2022-07-05T00:34:18;0.20;;;0.20;;
8040;SDS011;4063;48.140;10.250;2022-07-05T00:36:44;0.20;;;0.20;;
8040;SDS011;4063;48.140;10.250;2022-07-05T00:39:10;0.20;;;0.20;;
8040;SDS011;4063;48.140;10.250;2022-07-05T00:41:36;0.17;;;0.17;;
8040;SDS011;4063;48.140;10.250;2022-07-05T00:44:06;0.50;;;0.50;;
8040;SDS011;4063;48.140;10.250;2022-07-05T00:46:32;0.20;;;0.20;;
8040;SDS011;4063;48.140;10.250;2022-07-05T00:48:59;0.20;;;0.20;;
8040;SDS011;4063;48.140;10.250;2022-07-05T00:51:25;0.20;;;0.20;;
8040;SDS011;4063;48.140;10.250;2022-07-05T00:53:53;0.20;;;0.20;;
8040;SDS011;4063;48.140;10.250;2022-07-05T00:56:20;0.13;;;0.13;;
8040;SDS011;4063;48.140;10.250;2022-07-05T00:58:46;0.20;;;0.20;;
8040;SDS011;4063;48.140;10.250;2022-07-05T01:01:12;0.13;;;0.13;;
8040;SDS011;4063;48.140;10.250;2022-07-05T01:03:38;0.20;;;0.20;;
8040;SDS011;4063;48.140;10.250;2022-07-05T01:06:08;0.10;;;0.10;;
8040;SDS011;4063;48.140;10.250;2022-07-05T01:08:35;1.10;;;1.10;;
8040;SDS011;4063;48.140;10.250;2022-07-05T01:11:02;0.20;;;0.20;;
8040;SDS011;4063;48.140;10.250;2022-07-05T01:13:29;0.25;;;0.25;;
8040;SDS011;4063;48.140;10.250;2022-07-05T01:15:55;0.20;;;0.20;;
8040;SDS011;4063;48.140;10.250;2022-07-05T01:18:21;0.20;;;0.20;;
8040;SDS011;4063;48.140;10.250;2022-07-05T01:20:50;0.20;;;0.20;;
8040;SDS011;4063;48.140;10.250;2022-07-05T01:23:17;0.20;;;0.20;;
8040;SDS011;4063;48.140;10.250;2022-07-05T01:25:43;0.22;;;0.22;;
8040;SDS011;4063;48.140;10.250;2022-07-05T01:28:10;0.20;;;0.20;;
8040;SDS011;4063;48.140;10.250;2022-07-05T01:30:36;0.20;;;0.20;;
8040;SDS011;4063;48.140;10.250;2022-07-05T01:33:04;0.20;;;0.20;;
8040;SDS011;4063;48.140;10.250;2022-07-05T01:35:30;0.20;;;0.20;;
8040;SDS011;4063;48.140;10.250;2022-07-05T01:37:56;0.20;;;0.20;;
8040;SDS011;4063;48.140;10.250;2022-07-05T01:40:22;0.20;;;0.20;;
8040;SDS011;4063;48.140;10.250;2022-07-05T01:42:48;0.10;;;0.10;;
8040;SDS011;4063;48.140;10.250;2022-07-05T01:45:14;0.20;;;0.20;;
8040;SDS011;4063;48.140;10.250;2022-07-05T01:47:58;0.20;;;0.20;;
8040;SDS011;4063;48.140;10.250;2022-07-05T01:50:24;0.32;;;0.32;;
8040;SDS011;4063;48.140;10.250;2022-07-05T01:52:51;0.20;;;0.20;;
8040;SDS011;4063;48.140;10.250;2022-07-05T01:55:17;0.20;;;0.20;;
8040;SDS011;4063;48.140;10.250;2022-07-05T01:57:43;2.30;;;2.13;;
8040;SDS011;4063;48.140;10.250;2022-07-05T02:00:09;0.20;;;0.20;;
8040;SDS011;4063;48.140;10.250;2022-07-05T02:02:39;0.10;;;0.10;;
8040;SDS011;4063;48.140;10.250;2022-07-05T02:05:06;0.20;;;0.20;;
8040;SDS011;4063;48.140;10.250;2022-07-05T02:07:32;0.20;;;0.20;;
8040;SDS011;4063;48.140;10.250;2022-07-05T02:09:58;0.20;;;0.20;;
8040;SDS011;4063;48.140;10.250;2022-07-05T02:12:24;0.20;;;0.20;;
8040;SDS011;4063;48.140;10.250;2022-07-05T02:14:50;0.20;;;0.20;;
8040;SDS011;4063;48.140;10.250;2022-07-05T02:17:16;0.30;;;0.30;;
8040;SDS011;4063;48.140;10.250;2022-07-05T02:19:42;0.17;;;0.17;;
8040;SDS011;4063;48.140;10.250;2022-07-05T02:22:08;0.20;;;0.20;;
8040;SDS011;4063;48.140;10.250;2022-07-05T02:24:34;0.20;;;0.20;;
8040;SDS011;4063;48.140;10.250;2022-07-05T02:27:00;0.20;;;0.20;;
8040;SDS011;4063;48.140;10.250;2022-07-05T02:29:26;0.20;;;0.20;;
8040;SDS011;4063;48.140;10.250;2022-07-05T02:31:52;0.20;;;0.20;;
8040;SDS011;4063;48.140;10.250;2022-07-05T02:34:18;0.20;;;0.20;;
8040;SDS011;4063;48.140;10.250;2022-07-05T02:36:44;0.20;;;0.20;;
8040;SDS011;4063;48.140;10.250;2022-07-05T02:39:10;0.20;;;0.20;;
8040;SDS011;4063;48.140;10.250;2022-07-05T02:41:36;0.20;;;0.20;;
8040;SDS011;4063;48.140;10.250;2022-07-05T02:44:02;0.20;;;0.20;;
8040;SDS011;4063;48.140;10.250;2022-07-05T02:46:28;0.20;;;0.20;;
8040;SDS011;4063;48.140;10.250;2022-07-05T02:48:54;0.20;;;0.20;;
8040;SDS011;4063;48.140;10.250;2022-07-05T02:51:20;0.30;;;0.30;;
8040;SDS011;4063;48.140;10.250;2022-07-05T02:53:46;0.22;;;0.22;;
8040;SDS011;4063;48.140;10.250;2022-07-05T02:56:12;0.20;;;0.20;;
8040;SDS011;4063;48.140;10.250;2022-07-05T02:58:38;0.22;;;0.22;;
8040;SDS011;4063;48.140;10.250;2022-07-05T03:01:04;0.20;;;0.20;;
8040;SDS011;4063;48.140;10.250;2022-07-05T03:03:30;0.20;;;0.20;;
8040;SDS011;4063;48.140;10.250;2022-07-05T03:05:56;0.20;;;0.20;;
8040;SDS011;4063;48.140;10.250;2022-07-05T03:08:22;0.20;;;0.20;;
8040;SDS011;4063;48.140;10.250;2022-07-05T03:10:47;0.20;;;0.20;;
8040;SDS011;4063;48.140;10.250;2022-07-05T03:13:14;0.20;;;0.20;;
8040;SDS011;4063;48.140;10.250;2022-07-05T03:15:40;0.10;;;0.10;;
8040;SDS011;4063;48.140;10.250;2022-07-05T03:18:06;0.20;;;0.20;;
8040;SDS011;4063;48.140;10.250;2022-07-05T03:20:32;0.25;;;0.25;;
8040;SDS011;4063;48.140;10.250;2022-07-05T03:22:58;1.17;;;1.17;;
8040;SDS011;4063;48.140;10.250;2022-07-05T03:25:24;0.20;;;0.20;;
8040;SDS011;4063;48.140;10.250;2022-07-05T03:27:50;0.30;;;0.30;;
8040;SDS011;4063;48.140;10.250;2022-07-05T03:30:16;0.30;;;0.30;;
8040;SDS011;4063;48.140;10.250;2022-07-05T03:32:42;0.20;;;0.20;;
8040;SDS011;4063;48.140;10.250;2022-07-05T03:35:08;0.40;;;0.40;;
8040;SDS011;4063;48.140;10.250;2022-07-05T03:37:35;0.20;;;0.20;;
8040;SDS011;4063;48.140;10.250;2022-07-05T03:40:01;2.50;;;2.33;;
8040;SDS011;4063;48.140;10.250;2022-07-05T03:42:27;6.75;;;5.93;;
8040;SDS011;4063;48.140;10.250;2022-07-05T03:44:53;5.97;;;5.38;;
8040;SDS011;4063;48.140;10.250;2022-07-05T03:47:19;6.45;;;5.75;;
8040;SDS011;4063;48.140;10.250;2022-07-05T03:49:45;5.72;;;4.68;;
8040;SDS011;4063;48.140;10.250;2022-07-05T03:52:11;8.80;;;5.10;;
8040;SDS011;4063;48.140;10.250;2022-07-05T03:54:37;6.40;;;5.80;;
8040;SDS011;4063;48.140;10.250;2022-07-05T03:57:03;5.60;;;5.10;;
8040;SDS011;4063;48.140;10.250;2022-07-05T03:59:29;7.00;;;5.28;;
8040;SDS011;4063;48.140;10.250;2022-07-05T04:01:55;5.55;;;5.05;;
8040;SDS011;4063;48.140;10.250;2022-07-05T04:04:21;7.53;;;5.07;;
8040;SDS011;4063;48.140;10.250;2022-07-05T04:06:47;5.25;;;4.75;;
8040;SDS011;4063;48.140;10.250;2022-07-05T04:09:13;5.93;;;5.03;;
8040;SDS011;4063;48.140;10.250;2022-07-05T04:11:39;10.40;;;5.07;;
8040;SDS011;4063;48.140;10.250;2022-07-05T04:14:05;7.97;;;4.85;;
8040;SDS011;4063;48.140;10.250;2022-07-05T04:16:34;8.20;;;5.88;;
8040;SDS011;4063;48.140;10.250;2022-07-05T04:19:00;6.55;;;5.38;;
8040;SDS011;4063;48.140;10.250;2022-07-05T04:21:26;5.88;;;5.38;;
8040;SDS011;4063;48.140;10.250;2022-07-05T04:23:52;8.00;;;5.53;;
8040;SDS011;4063;48.140;10.250;2022-07-05T04:26:17;8.02;;;5.60;;
8040;SDS011;4063;48.140;10.250;2022-07-05T04:28:44;5.80;;;4.97;;
8040;SDS011;4063;48.140;10.250;2022-07-05T04:31:10;8.82;;;6.28;;
8040;SDS011;4063;48.140;10.250;2022-07-05T04:33:35;6.47;;;5.32;;
8040;SDS011;4063;48.140;10.250;2022-07-05T04:36:01;13.73;;;5.22;;
8040;SDS011;4063;48.140;10.250;2022-07-05T04:38:27;10.82;;;6.00;;
8040;SDS011;4063;48.140;10.250;2022-07-05T04:40:54;10.63;;;6.60;;
8040;SDS011;4063;48.140;10.250;2022-07-05T04:43:20;8.07;;;5.55;;
8040;SDS011;4063;48.140;10.250;2022-07-05T04:45:46;6.65;;;5.20;;
8040;SDS011;4063;48.140;10.250;2022-07-05T04:48:12;12.77;;;5.60;;
8040;SDS011;4063;48.140;10.250;2022-07-05T04:50:38;9.18;;;5.55;;
8040;SDS011;4063;48.140;10.250;2022-07-05T04:53:04;6.22;;;5.25;;
8040;SDS011;4063;48.140;10.250;2022-07-05T04:55:30;5.78;;;4.50;;
8040;SDS011;4063;48.140;10.250;2022-07-05T04:57:56;5.25;;;4.80;;
8040;SDS011;4063;48.140;10.250;2022-07-05T05:00:22;5.88;;;4.78;;
8040;SDS011;4063;48.140;10.250;2022-07-05T05:02:48;5.65;;;4.70;;
8040;SDS011;4063;48.140;10.250;2022-07-05T05:05:14;7.55;;;4.45;;
8040;SDS011;4063;48.140;10.250;2022-07-05T05:07:43;9.00;;;5.20;;
8040;SDS011;4063;48.140;10.250;2022-07-05T05:10:09;5.43;;;4.93;;
8040;SDS011;4063;48.140;10.250;2022-07-05T05:12:35;7.78;;;5.45;;
8040;SDS011;4063;48.140;10.250;2022-07-05T05:15:01;5.40;;;4.95;;
8040;SDS011;4063;48.140;10.250;2022-07-05T05:17:37;7.20;;;5.50;;
8040;SDS011;4063;48.140;10.250;2022-07-05T05:20:04;7.28;;;5.65;;
8040;SDS011;4063;48.140;10.250;2022-07-05T05:22:31;6.63;;;6.03;;
8040;SDS011;4063;48.140;10.250;2022-07-05T05:24:57;8.15;;;6.28;;
8040;SDS011;4063;48.140;10.250;2022-07-05T05:27:23;8.73;;;6.65;;
8040;SDS011;4063;48.140;10.250;2022-07-05T05:29:49;10.98;;;6.18;;
8040;SDS011;4063;48.140;10.250;2022-07-05T05:32:15;7.45;;;6.40;;
8040;SDS011;4063;48.140;10.250;2022-07-05T05:34:41;11.63;;;7.90;;
8040;SDS011;4063;48.140;10.250;2022-07-05T05:37:06;9.30;;;8.40;;
8040;SDS011;4063;48.140;10.250;2022-07-05T05:39:33;11.93;;;9.52;;
8040;SDS011;4063;48.140;10.250;2022-07-05T05:41:59;9.18;;;8.35;;
8040;SDS011;4063;48.140;10.250;2022-07-05T05:44:25;11.02;;;8.30;;
8040;SDS011;4063;48.140;10.250;2022-07-05T05:46:51;9.75;;;8.50;;
8040;SDS011;4063;48.140;10.250;2022-07-05T05:49:17;9.35;;;8.32;;
8040;SDS011;4063;48.140;10.250;2022-07-05T05:51:43;10.55;;;8.07;;
8040;SDS011;4063;48.140;10.250;2022-07-05T05:54:09;17.08;;;9.23;;
8040;SDS011;4063;48.140;10.250;2022-07-05T05:56:35;8.35;;;7.45;;
8040;SDS011;4063;48.140;10.250;2022-07-05T05:59:03;9.60;;;7.35;;
8040;SDS011;4063;48.140;10.250;2022-07-05T06:01:29;9.68;;;7.43;;
8040;SDS011;4063;48.140;10.250;2022-07-05T06:03:55;11.52;;;7.70;;
8040;SDS011;4063;48.140;10.250;2022-07-05T06:06:21;8.63;;;7.25;;
8040;SDS011;4063;48.140;10.250;2022-07-05T06:08:47;10.57;;;6.75;;
8040;SDS011;4063;48.140;10.250;2022-07-05T06:11:13;9.75;;;7.75;;
8040;SDS011;4063;48.140;10.250;2022-07-05T06:13:39;7.22;;;6.07;;
8040;SDS011;4063;48.140;10.250;2022-07-05T06:16:06;9.52;;;6.28;;
8040;SDS011;4063;48.140;10.250;2022-07-05T06:18:32;8.23;;;6.47;;
8040;SDS011;4063;48.140;10.250;2022-07-05T06:20:58;8.40;;;6.30;;
8040;SDS011;4063;48.140;10.250;2022-07-05T06:23:24;8.80;;;5.88;;
8040;SDS011;4063;48.140;10.250;2022-07-05T06:25:50;5.70;;;5.05;;
8040;SDS011;4063;48.140;10.250;2022-07-05T06:28:16;8.07;;;5.28;;
8040;SDS011;4063;48.140;10.250;2022-07-05T06:30:42;5.22;;;4.75;;
8040;SDS011;4063;48.140;10.250;2022-07-05T06:33:08;6.63;;;4.40;;
8040;SDS011;4063;48.140;10.250;2022-07-05T06:35:34;4.60;;;4.18;;
8040;SDS011;4063;48.140;10.250;2022-07-05T06:38:05;4.80;;;4.40;;
8040;SDS011;4063;48.140;10.250;2022-07-05T06:40:35;6.93;;;4.90;;
8040;SDS011;4063;48.140;10.250;2022-07-05T06:43:05;5.05;;;4.53;;
8040;SDS011;4063;48.140;10.250;2022-07-05T06:45:31;5.88;;;4.65;;
8040;SDS011;4063;48.140;10.250;2022-07-05T06:47:58;4.90;;;4.50;;
8040;SDS011;4063;48.140;10.250;2022-07-05T06:50:25;5.53;;;4.60;;
8040;SDS011;4063;48.140;10.250;2022-07-05T06:52:51;4.63;;;4.03;;
8040;SDS011;4063;48.140;10.250;2022-07-05T06:55:17;4.20;;;3.83;;
8040;SDS011;4063;48.140;10.250;2022-07-05T06:57:43;7.38;;;4.20;;
8040;SDS011;4063;48.140;10.250;2022-07-05T07:00:10;4.47;;;3.40;;
8040;SDS011;4063;48.140;10.250;2022-07-05T07:02:36;5.00;;;4.25;;
8040;SDS011;4063;48.140;10.250;2022-07-05T07:05:03;4.82;;;3.75;;
8040;SDS011;4063;48.140;10.250;2022-07-05T07:07:32;4.53;;;4.13;;
8040;SDS011;4063;48.140;10.250;2022-07-05T07:10:16;5.93;;;3.97;;
8040;SDS011;4063;48.140;10.250;2022-07-05T07:12:42;5.47;;;3.90;;
8040;SDS011;4063;48.140;10.250;2022-07-05T07:15:08;4.28;;;3.90;;
8040;SDS011;4063;48.140;10.250;2022-07-05T07:17:35;5.47;;;4.38;;
8040;SDS011;4063;48.140;10.250;2022-07-05T07:20:01;5.93;;;4.72;;
8040;SDS011;4063;48.140;10.250;2022-07-05T07:22:27;4.45;;;4.15;;
8040;SDS011;4063;48.140;10.250;2022-07-05T07:24:53;4.72;;;4.40;;
8040;SDS011;4063;48.140;10.250;2022-07-05T07:27:19;5.47;;;4.85;;
8040;SDS011;4063;48.140;10.250;2022-07-05T07:29:45;5.43;;;4.90;;
8040;SDS011;4063;48.140;10.250;2022-07-05T07:32:11;5.75;;;5.13;;
8040;SDS011;4063;48.140;10.250;2022-07-05T07:34:37;5.25;;;4.75;;
8040;SDS011;4063;48.140;10.250;2022-07-05T07:37:04;7.65;;;5.00;;
8040;SDS011;4063;48.140;10.250;2022-07-05T07:39:31;6.00;;;4.57;;
8040;SDS011;4063;48.140;10.250;2022-07-05T07:41:57;4.97;;;4.57;;
8040;SDS011;4063;48.140;10.250;2022-07-05T07:44:23;7.35;;;4.53;;
8040;SDS011;4063;48.140;10.250;2022-07-05T07:46:49;5.72;;;4.50;;
8040;SDS011;4063;48.140;10.250;2022-07-05T07:49:16;6.22;;;4.55;;
8040;SDS011;4063;48.140;10.250;2022-07-05T07:51:42;6.70;;;3.90;;
8040;SDS011;4063;48.140;10.250;2022-07-05T07:54:08;4.78;;;3.45;;
8040;SDS011;4063;48.140;10.250;2022-07-05T07:56:35;3.65;;;3.35;;
8040;SDS011;4063;48.140;10.250;2022-07-05T07:59:01;6.65;;;3.42;;
8040;SDS011;4063;48.140;10.250;2022-07-05T08:01:27;5.18;;;3.13;;
8040;SDS011;4063;48.140;10.250;2022-07-05T08:03:53;3.55;;;2.80;;
8040;SDS011;4063;48.140;10.250;2022-07-05T08:06:19;4.45;;;2.95;;
8040;SDS011;4063;48.140;10.250;2022-07-05T08:08:45;2.63;;;2.30;;
8040;SDS011;4063;48.140;10.250;2022-07-05T08:11:12;3.35;;;2.70;;
8040;SDS011;4063;48.140;10.250;2022-07-05T08:13:38;5.60;;;2.72;;
8040;SDS011;4063;48.140;10.250;2022-07-05T08:16:05;7.60;;;2.28;;
8040;SDS011;4063;48.140;10.250;2022-07-05T08:18:31;4.55;;;2.10;;
8040;SDS011;4063;48.140;10.250;2022-07-05T08:21:16;3.13;;;2.08;;
8040;SDS011;4063;48.140;10.250;2022-07-05T08:24:09;3.38;;;1.88;;
8040;SDS011;4063;48.140;10.250;2022-07-05T08:26:36;3.03;;;1.70;;
8040;SDS011;4063;48.140;10.250;2022-07-05T08:29:03;2.00;;;1.60;;
8040;SDS011;4063;48.140;10.250;2022-07-05T08:31:30;3.88;;;2.00;;
8040;SDS011;4063;48.140;10.250;2022-07-05T08:33:56;4.68;;;1.60;;
8040;SDS011;4063;48.140;10.250;2022-07-05T08:36:23;2.00;;;1.52;;
8040;SDS011;4063;48.140;10.250;2022-07-05T08:38:49;1.63;;;1.52;;
8040;SDS011;4063;48.140;10.250;2022-07-05T08:41:17;2.47;;;1.90;;
8040;SDS011;4063;48.140;10.250;2022-07-05T08:43:43;2.47;;;1.88;;
8040;SDS011;4063;48.140;10.250;2022-07-05T08:46:10;2.95;;;1.80;;
8040;SDS011;4063;48.140;10.250;2022-07-05T08:48:37;2.30;;;1.60;;
8040;SDS011;4063;48.140;10.250;2022-07-05T08:51:11;1.73;;;1.50;;
8040;SDS011;4063;48.140;10.250;2022-07-05T08:53:37;1.73;;;1.63;;
8040;SDS011;4063;48.140;10.250;2022-07-05T08:56:04;2.63;;;1.85;;
8040;SDS011;4063;48.140;10.250;2022-07-05T08:58:31;3.10;;;1.70;;
8040;SDS011;4063;48.140;10.250;2022-07-05T09:00:57;1.92;;;1.38;;
8040;SDS011;4063;48.140;10.250;2022-07-05T09:03:24;3.03;;;1.65;;
8040;SDS011;4063;48.140;10.250;2022-07-05T09:05:53;6.32;;;1.80;;
8040;SDS011;4063;48.140;10.250;2022-07-05T09:08:21;1.65;;;1.45;;
8040;SDS011;4063;48.140;10.250;2022-07-05T09:10:47;2.55;;;1.50;;
8040;SDS011;4063;48.140;10.250;2022-07-05T09:13:14;2.35;;;1.65;;
8040;SDS011;4063;48.140;10.250;2022-07-05T09:15:40;3.60;;;1.70;;
8040;SDS011;4063;48.140;10.250;2022-07-05T09:18:06;1.67;;;1.40;;
8040;SDS011;4063;48.140;10.250;2022-07-05T09:20:32;1.83;;;1.50;;
8040;SDS011;4063;48.140;10.250;2022-07-05T09:22:58;1.40;;;1.30;;
8040;SDS011;4063;48.140;10.250;2022-07-05T09:25:25;2.25;;;1.42;;
8040;SDS011;4063;48.140;10.250;2022-07-05T09:28:02;2.20;;;1.75;;
8040;SDS011;4063;48.140;10.250;2022-07-05T09:30:47;4.63;;;1.50;;
8040;SDS011;4063;48.140;10.250;2022-07-05T09:33:14;1.73;;;1.23;;
8040;SDS011;4063;48.140;10.250;2022-07-05T09:35:51;2.35;;;1.42;;
8040;SDS011;4063;48.140;10.250;2022-07-05T09:38:20;6.97;;;1.60;;
8040;SDS011;4063;48.140;10.250;2022-07-05T09:40:50;2.97;;;1.33;;
8040;SDS011;4063;48.140;10.250;2022-07-05T09:43:17;4.22;;;1.35;;
8040;SDS011;4063;48.140;10.250;2022-07-05T09:48:19;2.80;;;1.45;;
8040;SDS011;4063;48.140;10.250;2022-07-05T09:50:45;5.80;;;1.60;;
8040;SDS011;4063;48.140;10.250;2022-07-05T09:53:11;3.15;;;1.45;;
8040;SDS011;4063;48.140;10.250;2022-07-05T09:55:37;2.22;;;1.67;;
8040;SDS011;4063;48.140;10.250;2022-07-05T09:58:04;3.53;;;1.58;;
8040;SDS011;4063;48.140;10.250;2022-07-05T10:00:30;1.60;;;1.50;;
8040;SDS011;4063;48.140;10.250;2022-07-05T10:02:57;1.67;;;1.40;;
8040;SDS011;4063;48.140;10.250;2022-07-05T10:05:28;1.90;;;1.45;;
8040;SDS011;4063;48.140;10.250;2022-07-05T10:07:55;2.15;;;1.50;;
8040;SDS011;4063;48.140;10.250;2022-07-05T10:10:22;2.28;;;1.45;;
8040;SDS011;4063;48.140;10.250;2022-07-05T10:12:48;1.75;;;1.50;;
8040;SDS011;4063;48.140;10.250;2022-07-05T10:15:15;3.10;;;1.48;;
8040;SDS011;4063;48.140;10.250;2022-07-05T10:18:25;6.22;;;1.70;;
8040;SDS011;4063;48.140;10.250;2022-07-05T10:20:44;4.55;;;2.20;;
8040;SDS011;4063;48.140;10.250;2022-07-05T10:23:13;3.30;;;1.48;;
8040;SDS011;4063;48.140;10.250;2022-07-05T10:25:40;2.38;;;1.60;;
8040;SDS011;4063;48.140;10.250;2022-07-05T10:28:07;3.05;;;1.70;;
8040;SDS011;4063;48.140;10.250;2022-07-05T10:30:34;1.45;;;1.30;;
8040;SDS011;4063;48.140;10.250;2022-07-05T10:33:05;2.60;;;1.48;;
8040;SDS011;4063;48.140;10.250;2022-07-05T10:35:32;2.58;;;1.50;;
8040;SDS011;4063;48.140;10.250;2022-07-05T10:37:58;1.42;;;1.30;;
8040;SDS011;4063;48.140;10.250;2022-07-05T10:40:25;1.95;;;1.58;;
8040;SDS011;4063;48.140;10.250;2022-07-05T10:42:55;1.50;;;1.40;;
8040;SDS011;4063;48.140;10.250;2022-07-05T11:03:48;2.10;;;1.30;;
8040;SDS011;4063;48.140;10.250;2022-07-05T11:06:20;4.63;;;3.47;;
8040;SDS011;4063;48.140;10.250;2022-07-05T11:11:29;1.98;;;1.20;;
8040;SDS011;4063;48.140;10.250;2022-07-05T11:13:56;2.20;;;1.38;;
8040;SDS011;4063;48.140;10.250;2022-07-05T11:19:08;4.15;;;1.20;;
8040;SDS011;4063;48.140;10.250;2022-07-05T11:21:36;3.50;;;1.30;;
8040;SDS011;4063;48.140;10.250;2022-07-05T11:26:47;1.50;;;1.40;;
8040;SDS011;4063;48.140;10.250;2022-07-05T11:32:14;1.65;;;1.40;;
8040;SDS011;4063;48.140;10.250;2022-07-05T11:34:45;3.20;;;1.70;;
8040;SDS011;4063;48.140;10.250;2022-07-05T11:37:18;1.98;;;1.33;;
8040;SDS011;4063;48.140;10.250;2022-07-05T11:42:33;2.47;;;1.77;;
8040;SDS011;4063;48.140;10.250;2022-07-05T11:45:06;1.75;;;1.20;;
8040;SDS011;4063;48.140;10.250;2022-07-05T11:47:33;2.05;;;1.33;;
8040;SDS011;4063;48.140;10.250;2022-07-05T11:50:00;2.85;;;1.30;;
8040;SDS011;4063;48.140;10.250;2022-07-05T11:54:52;3.33;;;1.73;;
8040;SDS011;4063;48.140;10.250;2022-07-05T11:57:19;3.28;;;2.60;;
8040;SDS011;4063;48.140;10.250;2022-07-05T11:59:46;2.35;;;1.48;;
8040;SDS011;4063;48.140;10.250;2022-07-05T12:02:12;5.30;;;2.05;;
8040;SDS011;4063;48.140;10.250;2022-07-05T12:04:38;1.40;;;1.30;;
8040;SDS011;4063;48.140;10.250;2022-07-05T12:07:04;3.83;;;1.70;;
8040;SDS011;4063;48.140;10.250;2022-07-05T12:09:31;1.55;;;1.02;;
8040;SDS011;4063;48.140;10.250;2022-07-05T12:12:23;1.23;;;1.02;;
8040;SDS011;4063;48.140;10.250;2022-07-05T12:15:12;3.75;;;1.52;;
8040;SDS011;4063;48.140;10.250;2022-07-05T12:17:39;2.15;;;1.23;;
8040;SDS011;4063;48.140;10.250;2022-07-05T12:20:07;1.30;;;1.20;;
8040;SDS011;4063;48.140;10.250;2022-07-05T12:22:35;1.33;;;1.15;;
8040;SDS011;4063;48.140;10.250;2022-07-05T12:25:03;1.58;;;1.15;;
8040;SDS011;4063;48.140;10.250;2022-07-05T12:27:33;3.58;;;1.50;;
8040;SDS011;4063;48.140;10.250;2022-07-05T12:29:59;3.10;;;1.35;;
8040;SDS011;4063;48.140;10.250;2022-07-05T12:32:27;2.28;;;1.40;;
8040;SDS011;4063;48.140;10.250;2022-07-05T12:34:54;2.33;;;1.60;;
8040;SDS011;4063;48.140;10.250;2022-07-05T12:37:21;2.13;;;1.75;;
8040;SDS011;4063;48.140;10.250;2022-07-05T12:39:48;2.08;;;1.52;;
8040;SDS011;4063;48.140;10.250;2022-07-05T12:42:29;4.28;;;1.35;;
8040;SDS011;4063;48.140;10.250;2022-07-05T12:45:10;3.13;;;1.25;;
8040;SDS011;4063;48.140;10.250;2022-07-05T12:50:15;1.85;;;1.17;;
8040;SDS011;4063;48.140;10.250;2022-07-05T12:52:58;1.25;;;1.20;;
8040;SDS011;4063;48.140;10.250;2022-07-05T12:55:47;7.45;;;1.10;;
8040;SDS011;4063;48.140;10.250;2022-07-05T12:58:32;1.45;;;1.10;;
8040;SDS011;4063;48.140;10.250;2022-07-05T13:00:58;1.80;;;1.13;;
8040;SDS011;4063;48.140;10.250;2022-07-05T13:03:24;1.35;;;1.13;;
8040;SDS011;4063;48.140;10.250;2022-07-05T13:06:00;3.03;;;2.08;;
8040;SDS011;4063;48.140;10.250;2022-07-05T13:08:27;2.28;;;1.13;;
8040;SDS011;4063;48.140;10.250;2022-07-05T13:10:53;2.10;;;1.35;;
8040;SDS011;4063;48.140;10.250;2022-07-05T13:13:20;2.90;;;1.00;;
8040;SDS011;4063;48.140;10.250;2022-07-05T13:15:45;4.50;;;1.30;;
8040;SDS011;4063;48.140;10.250;2022-07-05T13:18:12;6.68;;;1.10;;
8040;SDS011;4063;48.140;10.250;2022-07-05T13:20:47;1.42;;;0.98;;
8040;SDS011;4063;48.140;10.250;2022-07-05T13:23:15;1.33;;;0.90;;
8040;SDS011;4063;48.140;10.250;2022-07-05T13:25:40;1.25;;;1.00;;
8040;SDS011;4063;48.140;10.250;2022-07-05T13:28:06;1.23;;;1.00;;
8040;SDS011;4063;48.140;10.250;2022-07-05T13:30:32;2.13;;;1.45;;
8040;SDS011;4063;48.140;10.250;2022-07-05T13:32:58;3.85;;;0.95;;
8040;SDS011;4063;48.140;10.250;2022-07-05T13:35:24;1.40;;;1.30;;
8040;SDS011;4063;48.140;10.250;2022-07-05T13:37:50;2.05;;;1.55;;
8040;SDS011;4063;48.140;10.250;2022-07-05T13:40:16;1.83;;;1.30;;
8040;SDS011;4063;48.140;10.250;2022-07-05T13:42:42;1.88;;;1.13;;
8040;SDS011;4063;48.140;10.250;2022-07-05T13:45:08;2.83;;;1.30;;
8040;SDS011;4063;48.140;10.250;2022-07-05T13:47:35;2.55;;;1.10;;
8040;SDS011;4063;48.140;10.250;2022-07-05T13:50:01;1.50;;;1.13;;
8040;SDS011;4063;48.140;10.250;2022-07-05T13:52:45;6.28;;;2.45;;
8040;SDS011;4063;48.140;10.250;2022-07-05T13:55:11;2.80;;;1.25;;
8040;SDS011;4063;48.140;10.250;2022-07-05T13:57:37;2.25;;;1.02;;
8040;SDS011;4063;48.140;10.250;2022-07-05T14:00:03;2.90;;;1.33;;
8040;SDS011;4063;48.140;10.250;2022-07-05T14:02:29;1.73;;;1.05;;
8040;SDS011;4063;48.140;10.250;2022-07-05T14:04:56;1.48;;;1.10;;
8040;SDS011;4063;48.140;10.250;2022-07-05T14:07:22;1.48;;;1.08;;
8040;SDS011;4063;48.140;10.250;2022-07-05T14:09:47;3.08;;;2.38;;
8040;SDS011;4063;48.140;10.250;2022-07-05T14:12:14;3.38;;;1.10;;
8040;SDS011;4063;48.140;10.250;2022-07-05T14:14:40;1.17;;;1.08;;
8040;SDS011;4063;48.140;10.250;2022-07-05T14:17:06;1.75;;;1.50;;
8040;SDS011;4063;48.140;10.250;2022-07-05T14:19:32;4.30;;;2.10;;
8040;SDS011;4063;48.140;10.250;2022-07-05T14:21:57;4.05;;;1.52;;
8040;SDS011;4063;48.140;10.250;2022-07-05T14:24:24;2.35;;;1.20;;
8040;SDS011;4063;48.140;10.250;2022-07-05T14:26:50;3.70;;;1.67;;
8040;SDS011;4063;48.140;10.250;2022-07-05T14:29:16;1.27;;;1.17;;
8040;SDS011;4063;48.140;10.250;2022-07-05T14:31:42;2.50;;;0.98;;
8040;SDS011;4063;48.140;10.250;2022-07-05T14:34:08;2.15;;;1.40;;
8040;SDS011;4063;48.140;10.250;2022-07-05T14:36:34;4.43;;;1.20;;
8040;SDS011;4063;48.140;10.250;2022-07-05T14:39:00;1.45;;;1.20;;
8040;SDS011;4063;48.140;10.250;2022-07-05T14:41:26;2.90;;;1.50;;
8040;SDS011;4063;48.140;10.250;2022-07-05T14:43:53;2.03;;;1.20;;
8040;SDS011;4063;48.140;10.250;2022-07-05T14:46:19;3.40;;;1.73;;
8040;SDS011;4063;48.140;10.250;2022-07-05T14:48:46;1.45;;;1.10;;
8040;SDS011;4063;48.140;10.250;2022-07-05T14:51:12;1.77;;;1.10;;
8040;SDS011;4063;48.140;10.250;2022-07-05T14:53:38;1.30;;;0.95;;
8040;SDS011;4063;48.140;10.250;2022-07-05T14:56:07;2.00;;;1.60;;
8040;SDS011;4063;48.140;10.250;2022-07-05T14:58:33;2.78;;;1.70;;
8040;SDS011;4063;48.140;10.250;2022-07-05T15:00:59;1.67;;;1.42;;
8040;SDS011;4063;48.140;10.250;2022-07-05T15:03:25;3.63;;;1.80;;
8040;SDS011;4063;48.140;10.250;2022-07-05T15:05:51;1.70;;;1.20;;
8040;SDS011;4063;48.140;10.250;2022-07-05T15:08:17;2.83;;;1.00;;
8040;SDS011;4063;48.140;10.250;2022-07-05T15:10:45;2.20;;;1.10;;
8040;SDS011;4063;48.140;10.250;2022-07-05T15:13:11;1.63;;;1.27;;
8040;SDS011;4063;48.140;10.250;2022-07-05T15:15:37;3.38;;;1.40;;
8040;SDS011;4063;48.140;10.250;2022-07-05T15:18:03;1.55;;;1.20;;
8040;SDS011;4063;48.140;10.250;2022-07-05T15:20:29;1.33;;;0.93;;
8040;SDS011;4063;48.140;10.250;2022-07-05T15:22:55;1.70;;;1.50;;
8040;SDS011;4063;48.140;10.250;2022-07-05T15:25:21;4.97;;;1.73;;
8040;SDS011;4063;48.140;10.250;2022-07-05T15:27:48;3.75;;;1.60;;
8040;SDS011;4063;48.140;10.250;2022-07-05T15:30:14;1.75;;;1.63;;
8040;SDS011;4063;48.140;10.250;2022-07-05T15:32:42;5.05;;;1.40;;
8040;SDS011;4063;48.140;10.250;2022-07-05T15:35:09;2.33;;;1.40;;
8040;SDS011;4063;48.140;10.250;2022-07-05T15:37:35;1.30;;;1.10;;
8040;SDS011;4063;48.140;10.250;2022-07-05T15:40:02;2.67;;;1.10;;
8040;SDS011;4063;48.140;10.250;2022-07-05T15:42:28;4.20;;;1.27;;